sensor_id;sensor_type;location;lat;lon;timestamp;temperature;humidity
58638;DHT22;54976;51.510;7.522;2023-09-18T08:20:06;21.30;99.20
58638;DHT22;54976;51.510;7.522;2023-09-18T08:23:12;21.40;98.80
58638;DHT22;54976;51.510;7.522;2023-09-18T08:26:13;21.70;98.70
58638;DHT22;54976;51.510;7.522;2023-09-18T08:29:14;21.90;98.30
58638;DHT22;54976;51.510;7.522;2023-09-18T08:32:15;22.10;97.50
58638;DHT22;54976;51.510;7.522;2023-09-18T08:35:16;22.20;97.20
58638;DHT22;54976;51.510;7.522;2023-09-18T08:38:16;22.30;97.30
58638;DHT22;54976;51.510;7.522;2023-09-18T08:41:18;22.30;96.60
58638;DHT22;54976;51.510;7.522;2023-09-18T08:44:23;22.40;96.80
58638;DHT22;54976;51.510;7.522;2023-09-18T08:47:27;22.40;96.70
58638;DHT22;54976;51.510;7.522;2023-09-18T08:50:29;22.40;96.70
58638;DHT22;54976;51.510;7.522;2023-09-18T08:53:35;22.30;96.00
58638;DHT22;54976;51.510;7.522;2023-09-18T08:56:36;22.30;96.20
58638;DHT22;54976;51.510;7.522;2023-09-18T08:59:37;22.20;97.10
58638;DHT22;54976;51.510;7.522;2023-09-18T09:02:39;22.30;96.50
58638;DHT22;54976;51.510;7.522;2023-09-18T09:05:40;22.30;95.80
58638;DHT22;54976;51.510;7.522;2023-09-18T09:08:40;22.40;96.00
58638;DHT22;54976;51.510;7.522;2023-09-18T09:11:49;22.40;95.90
58638;DHT22;54976;51.510;7.522;2023-09-18T09:15:03;22.50;95.70
58638;DHT22;54976;51.510;7.522;2023-09-18T09:18:06;22.60;95.40
58638;DHT22;54976;51.510;7.522;2023-09-18T09:21:07;22.70;95.30
58638;DHT22;54976;51.510;7.522;2023-09-18T09:24:08;22.70;94.60
58638;DHT22;54976;51.510;7.522;2023-09-18T09:27:09;22.80;94.70
58638;DHT22;54976;51.510;7.522;2023-09-18T09:30:11;22.90;94.30
58638;DHT22;54976;51.510;7.522;2023-09-18T09:33:12;23.00;94.50
58638;DHT22;54976;51.510;7.522;2023-09-18T09:36:13;23.10;94.70
58638;DHT22;54976;51.510;7.522;2023-09-18T09:39:15;23.20;94.00
58638;DHT22;54976;51.510;7.522;2023-09-18T09:42:19;23.30;93.90
58638;DHT22;54976;51.510;7.522;2023-09-18T09:45:29;23.40;93.50
58638;DHT22;54976;51.510;7.522;2023-09-18T09:48:30;23.30;94.00
58638;DHT22;54976;51.510;7.522;2023-09-18T09:51:33;23.40;93.50
58638;DHT22;54976;51.510;7.522;2023-09-18T09:54:34;23.50;93.30
58638;DHT22;54976;51.510;7.522;2023-09-18T09:57:47;23.40;92.70
58638;DHT22;54976;51.510;7.522;2023-09-18T10:00:51;23.40;92.90
58638;DHT22;54976;51.510;7.522;2023-09-18T10:03:54;23.50;93.10
58638;DHT22;54976;51.510;7.522;2023-09-18T10:06:58;23.50;92.70
58638;DHT22;54976;51.510;7.522;2023-09-18T10:10:06;23.50;92.90
58638;DHT22;54976;51.510;7.522;2023-09-18T10:13:12;23.50;92.40
58638;DHT22;54976;51.510;7.522;2023-09-18T10:16:17;23.60;92.90
58638;DHT22;54976;51.510;7.522;2023-09-18T10:19:30;23.60;92.20
58638;DHT22;54976;51.510;7.522;2023-09-18T10:22:44;23.50;92.00
58638;DHT22;54976;51.510;7.522;2023-09-18T10:25:48;23.50;92.40
58638;DHT22;54976;51.510;7.522;2023-09-18T10:28:49;23.50;92.20
58638;DHT22;54976;51.510;7.522;2023-09-18T10:31:53;23.40;92.00
58638;DHT22;54976;51.510;7.522;2023-09-18T10:34:54;23.40;92.50
58638;DHT22;54976;51.510;7.522;2023-09-18T10:37:55;23.40;92.30
58638;DHT22;54976;51.510;7.522;2023-09-18T10:40:57;23.50;91.60
58638;DHT22;54976;51.510;7.522;2023-09-18T10:43:58;23.50;91.90
58638;DHT22;54976;51.510;7.522;2023-09-18T10:47:01;23.60;91.40
58638;DHT22;54976;51.510;7.522;2023-09-18T10:50:03;23.50;91.30
58638;DHT22;54976;51.510;7.522;2023-09-18T10:53:05;23.50;91.40
58638;DHT22;54976;51.510;7.522;2023-09-18T10:56:05;23.50;92.10
58638;DHT22;54976;51.510;7.522;2023-09-18T10:59:07;23.60;92.40
58638;DHT22;54976;51.510;7.522;2023-09-18T11:02:08;23.60;92.20
58638;DHT22;54976;51.510;7.522;2023-09-18T11:05:08;23.60;92.80
58638;DHT22;54976;51.510;7.522;2023-09-18T11:08:28;23.50;91.60
58638;DHT22;54976;51.510;7.522;2023-09-18T11:11:29;23.60;92.90
58638;DHT22;54976;51.510;7.522;2023-09-18T11:18:00;23.50;92.20
58638;DHT22;54976;51.510;7.522;2023-09-18T11:21:09;23.60;91.30
58638;DHT22;54976;51.510;7.522;2023-09-18T11:24:36;23.60;91.60
58638;DHT22;54976;51.510;7.522;2023-09-18T11:27:53;23.70;92.00
58638;DHT22;54976;51.510;7.522;2023-09-18T11:30:57;23.70;91.40
58638;DHT22;54976;51.510;7.522;2023-09-18T11:34:14;23.80;90.40
58638;DHT22;54976;51.510;7.522;2023-09-18T11:37:22;23.70;90.10
58638;DHT22;54976;51.510;7.522;2023-09-18T11:40:39;23.80;90.60
58638;DHT22;54976;51.510;7.522;2023-09-18T11:43:41;23.80;90.30
58638;DHT22;54976;51.510;7.522;2023-09-18T11:46:46;23.80;90.70
58638;DHT22;54976;51.510;7.522;2023-09-18T11:49:57;24.00;90.80
58638;DHT22;54976;51.510;7.522;2023-09-18T11:52:58;24.00;90.50
58638;DHT22;54976;51.510;7.522;2023-09-18T11:55:59;24.00;90.20
58638;DHT22;54976;51.510;7.522;2023-09-18T11:59:00;24.00;90.10
58638;DHT22;54976;51.510;7.522;2023-09-18T12:02:05;24.10;90.10
58638;DHT22;54976;51.510;7.522;2023-09-18T12:05:14;24.10;90.30
58638;DHT22;54976;51.510;7.522;2023-09-18T12:08:16;24.20;89.00
58638;DHT22;54976;51.510;7.522;2023-09-18T12:11:16;24.30;89.20
58638;DHT22;54976;51.510;7.522;2023-09-18T12:14:20;24.40;90.40
58638;DHT22;54976;51.510;7.522;2023-09-18T12:17:21;24.60;87.50
58638;DHT22;54976;51.510;7.522;2023-09-18T12:20:22;24.70;87.00
58638;DHT22;54976;51.510;7.522;2023-09-18T12:23:22;24.60;88.00
58638;DHT22;54976;51.510;7.522;2023-09-18T12:26:25;24.70;87.40
58638;DHT22;54976;51.510;7.522;2023-09-18T12:29:26;24.70;86.30
58638;DHT22;54976;51.510;7.522;2023-09-18T12:32:27;24.70;87.70
58638;DHT22;54976;51.510;7.522;2023-09-18T12:35:30;24.80;88.20
58638;DHT22;54976;51.510;7.522;2023-09-18T12:38:31;24.80;87.60
58638;DHT22;54976;51.510;7.522;2023-09-18T12:41:32;24.90;88.80
58638;DHT22;54976;51.510;7.522;2023-09-18T12:44:33;24.80;87.50
58638;DHT22;54976;51.510;7.522;2023-09-18T12:47:35;24.70;86.60
58638;DHT22;54976;51.510;7.522;2023-09-18T12:50:39;24.50;83.90
58638;DHT22;54976;51.510;7.522;2023-09-18T12:53:40;24.40;86.40
58638;DHT22;54976;51.510;7.522;2023-09-18T12:56:41;24.20;87.70
58638;DHT22;54976;51.510;7.522;2023-09-18T12:59:42;24.00;87.50
58638;DHT22;54976;51.510;7.522;2023-09-18T13:02:45;23.80;91.50
58638;DHT22;54976;51.510;7.522;2023-09-18T13:05:45;23.50;93.90
58638;DHT22;54976;51.510;7.522;2023-09-18T13:08:47;23.00;94.30
58638;DHT22;54976;51.510;7.522;2023-09-18T13:11:57;22.70;95.70
58638;DHT22;54976;51.510;7.522;2023-09-18T13:18:10;22.50;96.30
58638;DHT22;54976;51.510;7.522;2023-09-18T13:21:14;22.50;96.60
58638;DHT22;54976;51.510;7.522;2023-09-18T13:24:44;22.50;96.30
58638;DHT22;54976;51.510;7.522;2023-09-18T13:27:45;22.60;96.90
58638;DHT22;54976;51.510;7.522;2023-09-18T13:30:45;22.60;96.80
58638;DHT22;54976;51.510;7.522;2023-09-18T13:33:46;22.60;97.90
58638;DHT22;54976;51.510;7.522;2023-09-18T13:36:47;22.70;98.10
58638;DHT22;54976;51.510;7.522;2023-09-18T13:39:47;22.70;97.80
58638;DHT22;54976;51.510;7.522;2023-09-18T13:42:48;22.70;96.80
58638;DHT22;54976;51.510;7.522;2023-09-18T13:45:49;22.70;97.80
58638;DHT22;54976;51.510;7.522;2023-09-18T13:48:54;22.70;96.90
58638;DHT22;54976;51.510;7.522;2023-09-18T13:51:54;22.70;95.70
58638;DHT22;54976;51.510;7.522;2023-09-18T13:54:57;22.70;95.10
58638;DHT22;54976;51.510;7.522;2023-09-18T13:57:57;22.80;96.40
58638;DHT22;54976;51.510;7.522;2023-09-18T14:00:58;23.00;95.80
58638;DHT22;54976;51.510;7.522;2023-09-18T14:03:59;23.00;95.60
58638;DHT22;54976;51.510;7.522;2023-09-18T14:06:59;23.20;94.70
58638;DHT22;54976;51.510;7.522;2023-09-18T14:10:00;23.30;93.60
58638;DHT22;54976;51.510;7.522;2023-09-18T14:13:04;23.60;92.60
58638;DHT22;54976;51.510;7.522;2023-09-18T14:16:04;23.90;91.90
58638;DHT22;54976;51.510;7.522;2023-09-18T14:19:06;24.20;91.30
58638;DHT22;54976;51.510;7.522;2023-09-18T14:22:11;24.30;92.10
58638;DHT22;54976;51.510;7.522;2023-09-18T14:25:12;24.40;88.30
58638;DHT22;54976;51.510;7.522;2023-09-18T14:28:12;24.40;85.80
58638;DHT22;54976;51.510;7.522;2023-09-18T14:31:14;24.30;85.70
58638;DHT22;54976;51.510;7.522;2023-09-18T14:34:14;24.30;86.50
58638;DHT22;54976;51.510;7.522;2023-09-18T14:37:15;24.30;87.80
58638;DHT22;54976;51.510;7.522;2023-09-18T14:52:07;24.70;81.60
58638;DHT22;54976;51.510;7.522;2023-09-18T14:55:08;24.50;80.00
58638;DHT22;54976;51.510;7.522;2023-09-18T14:58:08;24.90;79.60
58638;DHT22;54976;51.510;7.522;2023-09-18T15:01:10;25.40;77.70
58638;DHT22;54976;51.510;7.522;2023-09-18T15:04:10;25.70;76.00
58638;DHT22;54976;51.510;7.522;2023-09-18T15:07:11;25.50;73.70
58638;DHT22;54976;51.510;7.522;2023-09-18T15:10:12;25.10;70.50
58638;DHT22;54976;51.510;7.522;2023-09-18T15:13:12;24.90;72.60
58638;DHT22;54976;51.510;7.522;2023-09-18T15:16:14;24.60;73.20
58638;DHT22;54976;51.510;7.522;2023-09-18T15:19:15;24.40;73.10
58638;DHT22;54976;51.510;7.522;2023-09-18T15:22:17;24.30;73.70
58638;DHT22;54976;51.510;7.522;2023-09-18T15:25:18;24.90;73.80
58638;DHT22;54976;51.510;7.522;2023-09-18T15:28:20;25.50;70.00
58638;DHT22;54976;51.510;7.522;2023-09-18T15:31:21;25.20;67.40
58638;DHT22;54976;51.510;7.522;2023-09-18T15:34:21;25.10;67.20
58638;DHT22;54976;51.510;7.522;2023-09-18T15:37:23;24.80;71.00
58638;DHT22;54976;51.510;7.522;2023-09-18T15:40:24;24.50;70.30
58638;DHT22;54976;51.510;7.522;2023-09-18T15:43:27;24.30;72.40
58638;DHT22;54976;51.510;7.522;2023-09-18T15:46:29;24.40;72.30
58638;DHT22;54976;51.510;7.522;2023-09-18T15:49:31;24.40;72.40
58638;DHT22;54976;51.510;7.522;2023-09-18T15:52:32;24.40;73.10
58638;DHT22;54976;51.510;7.522;2023-09-18T15:55:33;24.40;76.50
58638;DHT22;54976;51.510;7.522;2023-09-18T15:58:34;24.30;75.40
58638;DHT22;54976;51.510;7.522;2023-09-18T16:01:35;24.30;75.30
58638;DHT22;54976;51.510;7.522;2023-09-18T16:04:38;24.40;78.50
58638;DHT22;54976;51.510;7.522;2023-09-18T16:07:40;24.50;77.00
58638;DHT22;54976;51.510;7.522;2023-09-18T16:10:42;24.50;74.00
58638;DHT22;54976;51.510;7.522;2023-09-18T16:13:43;24.40;73.10
58638;DHT22;54976;51.510;7.522;2023-09-18T16:16:43;24.30;72.10
58638;DHT22;54976;51.510;7.522;2023-09-18T16:19:44;24.10;73.40
58638;DHT22;54976;51.510;7.522;2023-09-18T16:22:45;23.90;74.70
58638;DHT22;54976;51.510;7.522;2023-09-18T16:25:47;23.60;76.90
58638;DHT22;54976;51.510;7.522;2023-09-18T16:28:48;23.50;77.10
58638;DHT22;54976;51.510;7.522;2023-09-18T16:31:48;23.40;75.10
58638;DHT22;54976;51.510;7.522;2023-09-18T16:34:49;23.50;74.30
58638;DHT22;54976;51.510;7.522;2023-09-18T16:37:50;23.60;75.10
58638;DHT22;54976;51.510;7.522;2023-09-18T16:40:50;23.70;73.60
58638;DHT22;54976;51.510;7.522;2023-09-18T16:43:51;23.80;72.40
58638;DHT22;54976;51.510;7.522;2023-09-18T16:46:51;23.70;72.50
58638;DHT22;54976;51.510;7.522;2023-09-18T16:49:52;23.60;73.60
58638;DHT22;54976;51.510;7.522;2023-09-18T16:52:53;23.50;73.20
58638;DHT22;54976;51.510;7.522;2023-09-18T16:55:53;23.40;74.70
58638;DHT22;54976;51.510;7.522;2023-09-18T16:58:54;23.30;73.30
58638;DHT22;54976;51.510;7.522;2023-09-18T17:01:55;23.20;74.00
58638;DHT22;54976;51.510;7.522;2023-09-18T17:04:55;23.10;74.20
58638;DHT22;54976;51.510;7.522;2023-09-18T17:07:56;23.00;74.20
58638;DHT22;54976;51.510;7.522;2023-09-18T17:10:57;22.80;75.00
58638;DHT22;54976;51.510;7.522;2023-09-18T17:13:58;22.80;73.20
58638;DHT22;54976;51.510;7.522;2023-09-18T17:16:59;22.80;74.80
58638;DHT22;54976;51.510;7.522;2023-09-18T17:20:00;22.70;74.80
58638;DHT22;54976;51.510;7.522;2023-09-18T17:23:00;22.60;75.40
58638;DHT22;54976;51.510;7.522;2023-09-18T17:26:01;22.50;74.40
58638;DHT22;54976;51.510;7.522;2023-09-18T17:29:02;22.60;74.70
58638;DHT22;54976;51.510;7.522;2023-09-18T17:32:03;22.50;75.80
58638;DHT22;54976;51.510;7.522;2023-09-18T17:35:04;22.40;76.70
58638;DHT22;54976;51.510;7.522;2023-09-18T17:38:05;22.30;77.90
58638;DHT22;54976;51.510;7.522;2023-09-18T17:41:05;22.20;78.20
58638;DHT22;54976;51.510;7.522;2023-09-18T17:44:07;22.00;79.70
58638;DHT22;54976;51.510;7.522;2023-09-18T17:47:07;21.90;79.90
58638;DHT22;54976;51.510;7.522;2023-09-18T17:50:08;21.80;80.40
58638;DHT22;54976;51.510;7.522;2023-09-18T17:53:09;21.60;80.60
58638;DHT22;54976;51.510;7.522;2023-09-18T17:56:10;21.50;81.60
58638;DHT22;54976;51.510;7.522;2023-09-18T17:59:12;21.40;82.00
58638;DHT22;54976;51.510;7.522;2023-09-18T18:02:12;21.40;81.80
58638;DHT22;54976;51.510;7.522;2023-09-18T18:05:13;21.30;83.30
58638;DHT22;54976;51.510;7.522;2023-09-18T18:08:14;21.30;83.40
58638;DHT22;54976;51.510;7.522;2023-09-18T18:11:15;21.30;83.70
58638;DHT22;54976;51.510;7.522;2023-09-18T18:14:15;21.30;84.10
58638;DHT22;54976;51.510;7.522;2023-09-18T18:17:16;21.30;86.00
58638;DHT22;54976;51.510;7.522;2023-09-18T18:20:17;21.30;83.60
58638;DHT22;54976;51.510;7.522;2023-09-18T18:23:19;21.30;83.80
58638;DHT22;54976;51.510;7.522;2023-09-18T18:26:22;21.30;84.00
58638;DHT22;54976;51.510;7.522;2023-09-18T18:29:27;21.30;83.30
58638;DHT22;54976;51.510;7.522;2023-09-18T18:32:28;21.50;80.70
58638;DHT22;54976;51.510;7.522;2023-09-18T18:35:30;21.60;80.80
58638;DHT22;54976;51.510;7.522;2023-09-18T18:38:30;21.60;80.30
58638;DHT22;54976;51.510;7.522;2023-09-18T18:41:31;21.00;90.20
58638;DHT22;54976;51.510;7.522;2023-09-18T18:44:32;19.70;93.80
58638;DHT22;54976;51.510;7.522;2023-09-18T18:47:32;18.80;96.90
58638;DHT22;54976;51.510;7.522;2023-09-18T18:50:34;18.30;98.60
58638;DHT22;54976;51.510;7.522;2023-09-18T18:53:39;17.90;99.90
58638;DHT22;54976;51.510;7.522;2023-09-18T18:56:41;17.60;99.90
58638;DHT22;54976;51.510;7.522;2023-09-18T18:59:44;17.50;99.90
58638;DHT22;54976;51.510;7.522;2023-09-18T19:02:44;17.40;99.90
58638;DHT22;54976;51.510;7.522;2023-09-18T19:05:45;17.40;99.90
58638;DHT22;54976;51.510;7.522;2023-09-18T19:08:46;17.40;99.90
58638;DHT22;54976;51.510;7.522;2023-09-18T19:11:46;17.40;99.90
58638;DHT22;54976;51.510;7.522;2023-09-18T19:14:51;17.20;99.90
58638;DHT22;54976;51.510;7.522;2023-09-18T19:17:53;17.20;99.90
58638;DHT22;54976;51.510;7.522;2023-09-18T19:20:53;17.10;99.90
58638;DHT22;54976;51.510;7.522;2023-09-18T19:23:54;17.10;99.90
58638;DHT22;54976;51.510;7.522;2023-09-18T19:26:55;17.10;99.90
58638;DHT22;54976;51.510;7.522;2023-09-18T19:29:55;17.00;99.90
58638;DHT22;54976;51.510;7.522;2023-09-18T19:32:56;17.00;99.90
58638;DHT22;54976;51.510;7.522;2023-09-18T19:35:57;17.00;99.90
58638;DHT22;54976;51.510;7.522;2023-09-18T19:38:58;17.10;99.90
58638;DHT22;54976;51.510;7.522;2023-09-18T19:41:58;17.00;99.90
58638;DHT22;54976;51.510;7.522;2023-09-18T19:45:03;17.10;99.90
58638;DHT22;54976;51.510;7.522;2023-09-18T19:48:07;17.10;99.90
58638;DHT22;54976;51.510;7.522;2023-09-18T19:51:08;17.00;99.90
58638;DHT22;54976;51.510;7.522;2023-09-18T19:54:08;17.00;99.90
58638;DHT22;54976;51.510;7.522;2023-09-18T19:57:09;17.00;99.90
58638;DHT22;54976;51.510;7.522;2023-09-18T20:00:11;16.90;99.90
58638;DHT22;54976;51.510;7.522;2023-09-18T20:03:11;17.00;99.90
58638;DHT22;54976;51.510;7.522;2023-09-18T20:06:13;16.90;99.90
58638;DHT22;54976;51.510;7.522;2023-09-18T20:09:14;16.90;99.90
58638;DHT22;54976;51.510;7.522;2023-09-18T20:12:14;16.90;99.90
58638;DHT22;54976;51.510;7.522;2023-09-18T20:15:17;16.90;99.90
58638;DHT22;54976;51.510;7.522;2023-09-18T20:18:17;16.80;99.90
58638;DHT22;54976;51.510;7.522;2023-09-18T20:21:19;16.80;99.90
58638;DHT22;54976;51.510;7.522;2023-09-18T20:24:21;16.80;99.90
58638;DHT22;54976;51.510;7.522;2023-09-18T20:27:21;16.80;99.90
58638;DHT22;54976;51.510;7.522;2023-09-18T20:30:22;16.80;99.90
58638;DHT22;54976;51.510;7.522;2023-09-18T20:33:24;16.70;99.90
58638;DHT22;54976;51.510;7.522;2023-09-18T20:36:25;16.70;99.90
58638;DHT22;54976;51.510;7.522;2023-09-18T20:39:25;16.70;99.90
58638;DHT22;54976;51.510;7.522;2023-09-18T20:42:27;16.70;99.90
58638;DHT22;54976;51.510;7.522;2023-09-18T20:45:28;16.70;99.90
58638;DHT22;54976;51.510;7.522;2023-09-18T20:48:29;16.70;99.90
58638;DHT22;54976;51.510;7.522;2023-09-18T20:51:31;16.70;99.90
58638;DHT22;54976;51.510;7.522;2023-09-18T20:54:32;16.70;99.90
58638;DHT22;54976;51.510;7.522;2023-09-18T20:57:32;16.70;99.90
58638;DHT22;54976;51.510;7.522;2023-09-18T21:00:33;16.70;99.90
58638;DHT22;54976;51.510;7.522;2023-09-18T21:03:35;16.70;99.90
58638;DHT22;54976;51.510;7.522;2023-09-18T21:06:36;16.70;99.90
58638;DHT22;54976;51.510;7.522;2023-09-18T21:09:37;16.70;99.90
58638;DHT22;54976;51.510;7.522;2023-09-18T21:12:40;16.60;99.90
58638;DHT22;54976;51.510;7.522;2023-09-18T21:15:41;16.60;99.90
58638;DHT22;54976;51.510;7.522;2023-09-18T21:18:42;16.60;99.90
58638;DHT22;54976;51.510;7.522;2023-09-18T21:21:43;16.60;99.90
58638;DHT22;54976;51.510;7.522;2023-09-18T21:24:44;16.60;99.90
58638;DHT22;54976;51.510;7.522;2023-09-18T21:27:47;16.60;99.90
58638;DHT22;54976;51.510;7.522;2023-09-18T21:30:47;16.60;99.90
58638;DHT22;54976;51.510;7.522;2023-09-18T21:33:48;16.60;99.90
58638;DHT22;54976;51.510;7.522;2023-09-18T21:36:53;16.70;99.90
58638;DHT22;54976;51.510;7.522;2023-09-18T21:39:54;16.70;99.90
58638;DHT22;54976;51.510;7.522;2023-09-18T21:42:54;16.70;99.90
58638;DHT22;54976;51.510;7.522;2023-09-18T21:45:56;16.70;99.90
58638;DHT22;54976;51.510;7.522;2023-09-18T21:48:57;16.70;99.90
58638;DHT22;54976;51.510;7.522;2023-09-18T21:51:57;16.80;99.90
58638;DHT22;54976;51.510;7.522;2023-09-18T21:54:58;16.80;99.90
58638;DHT22;54976;51.510;7.522;2023-09-18T21:58:00;16.80;99.90
58638;DHT22;54976;51.510;7.522;2023-09-18T22:01:02;16.80;99.90
58638;DHT22;54976;51.510;7.522;2023-09-18T22:04:06;16.80;99.90
58638;DHT22;54976;51.510;7.522;2023-09-18T22:07:07;16.80;99.90
58638;DHT22;54976;51.510;7.522;2023-09-18T22:10:07;16.90;99.90
58638;DHT22;54976;51.510;7.522;2023-09-18T22:13:08;16.90;99.90
58638;DHT22;54976;51.510;7.522;2023-09-18T22:16:08;16.90;99.90
58638;DHT22;54976;51.510;7.522;2023-09-18T22:19:09;16.90;99.90
58638;DHT22;54976;51.510;7.522;2023-09-18T22:22:11;16.90;99.90
58638;DHT22;54976;51.510;7.522;2023-09-18T22:25:12;16.80;99.90
58638;DHT22;54976;51.510;7.522;2023-09-18T22:28:13;16.90;99.90
58638;DHT22;54976;51.510;7.522;2023-09-18T22:31:16;16.80;99.90
58638;DHT22;54976;51.510;7.522;2023-09-18T22:34:20;16.80;99.90
58638;DHT22;54976;51.510;7.522;2023-09-18T22:37:21;16.90;99.90
58638;DHT22;54976;51.510;7.522;2023-09-18T22:57:21;17.00;99.90
58638;DHT22;54976;51.510;7.522;2023-09-18T23:00:24;17.00;99.90
58638;DHT22;54976;51.510;7.522;2023-09-18T23:03:26;17.00;99.90
58638;DHT22;54976;51.510;7.522;2023-09-18T23:06:27;17.00;99.90
58638;DHT22;54976;51.510;7.522;2023-09-18T23:09:28;17.00;99.90
58638;DHT22;54976;51.510;7.522;2023-09-18T23:12:31;17.00;99.90
58638;DHT22;54976;51.510;7.522;2023-09-18T23:15:34;17.00;99.90
58638;DHT22;54976;51.510;7.522;2023-09-18T23:18:35;16.90;99.90
58638;DHT22;54976;51.510;7.522;2023-09-18T23:21:40;16.90;99.90
58638;DHT22;54976;51.510;7.522;2023-09-18T23:24:41;16.90;99.90
58638;DHT22;54976;51.510;7.522;2023-09-18T23:27:47;16.80;99.90
58638;DHT22;54976;51.510;7.522;2023-09-18T23:30:48;16.90;99.90
58638;DHT22;54976;51.510;7.522;2023-09-18T23:33:48;16.80;99.90
58638;DHT22;54976;51.510;7.522;2023-09-18T23:36:49;16.80;99.90
58638;DHT22;54976;51.510;7.522;2023-09-18T23:39:53;16.80;99.90
58638;DHT22;54976;51.510;7.522;2023-09-18T23:42:55;16.80;99.90
58638;DHT22;54976;51.510;7.522;2023-09-18T23:45:58;16.80;99.90
58638;DHT22;54976;51.510;7.522;2023-09-18T23:48:58;16.80;99.90
58638;DHT22;54976;51.510;7.522;2023-09-18T23:52:02;16.90;99.90
58638;DHT22;54976;51.510;7.522;2023-09-18T23:55:03;16.80;99.90
58638;DHT22;54976;51.510;7.522;2023-09-18T23:58:04;16.70;99.90
